sensor_id;sensor_type;location;lat;lon;timestamp;P1;durP1;ratioP1;P2;durP2;ratioP2
29452;SDS011;16424;50.956;5.320;2023-04-06T00:01:27;25.52;;;14.80;;
29452;SDS011;16424;50.956;5.320;2023-04-06T00:03:52;22.58;;;14.30;;
29452;SDS011;16424;50.956;5.320;2023-04-06T00:06:18;27.00;;;15.20;;
29452;SDS011;16424;50.956;5.320;2023-04-06T00:08:44;23.55;;;13.38;;
29452;SDS011;16424;50.956;5.320;2023-04-06T00:11:09;26.65;;;14.55;;
29452;SDS011;16424;50.956;5.320;2023-04-06T00:13:35;22.50;;;14.48;;
29452;SDS011;16424;50.956;5.320;2023-04-06T00:16:01;25.02;;;14.13;;
29452;SDS011;16424;50.956;5.320;2023-04-06T00:18:27;28.05;;;14.55;;
29452;SDS011;16424;50.956;5.320;2023-04-06T00:20:52;25.15;;;14.35;;
29452;SDS011;16424;50.956;5.320;2023-04-06T00:23:18;25.13;;;15.50;;
29452;SDS011;16424;50.956;5.320;2023-04-06T00:25:44;26.30;;;14.73;;
29452;SDS011;16424;50.956;5.320;2023-04-06T00:28:10;24.60;;;15.20;;
29452;SDS011;16424;50.956;5.320;2023-04-06T00:30:35;26.85;;;15.60;;
29452;SDS011;16424;50.956;5.320;2023-04-06T00:33:01;28.25;;;15.20;;
29452;SDS011;16424;50.956;5.320;2023-04-06T00:35:27;31.75;;;17.40;;
29452;SDS011;16424;50.956;5.320;2023-04-06T00:37:52;27.17;;;16.30;;
29452;SDS011;16424;50.956;5.320;2023-04-06T00:40:18;33.42;;;16.20;;
29452;SDS011;16424;50.956;5.320;2023-04-06T00:42:44;25.17;;;15.30;;
29452;SDS011;16424;50.956;5.320;2023-04-06T00:45:10;33.95;;;16.02;;
29452;SDS011;16424;50.956;5.320;2023-04-06T00:47:35;32.22;;;18.65;;
29452;SDS011;16424;50.956;5.320;2023-04-06T00:50:01;29.52;;;16.75;;
29452;SDS011;16424;50.956;5.320;2023-04-06T00:52:27;27.48;;;16.10;;
29452;SDS011;16424;50.956;5.320;2023-04-06T00:54:53;30.02;;;17.13;;
29452;SDS011;16424;50.956;5.320;2023-04-06T00:57:18;32.80;;;17.73;;
29452;SDS011;16424;50.956;5.320;2023-04-06T00:59:45;33.17;;;19.20;;
29452;SDS011;16424;50.956;5.320;2023-04-06T01:02:11;30.15;;;17.77;;
29452;SDS011;16424;50.956;5.320;2023-04-06T01:04:36;31.23;;;17.77;;
29452;SDS011;16424;50.956;5.320;2023-04-06T01:07:02;30.02;;;16.65;;
29452;SDS011;16424;50.956;5.320;2023-04-06T01:09:28;27.85;;;16.42;;
29452;SDS011;16424;50.956;5.320;2023-04-06T01:11:55;27.50;;;15.88;;
29452;SDS011;16424;50.956;5.320;2023-04-06T01:14:21;31.77;;;17.98;;
29452;SDS011;16424;50.956;5.320;2023-04-06T01:16:48;30.65;;;16.35;;
29452;SDS011;16424;50.956;5.320;2023-04-06T01:19:14;27.15;;;16.15;;
29452;SDS011;16424;50.956;5.320;2023-04-06T01:21:40;29.70;;;16.35;;
29452;SDS011;16424;50.956;5.320;2023-04-06T01:24:06;29.45;;;16.23;;
29452;SDS011;16424;50.956;5.320;2023-04-06T01:26:33;31.27;;;18.58;;
29452;SDS011;16424;50.956;5.320;2023-04-06T01:29:00;29.42;;;17.58;;
29452;SDS011;16424;50.956;5.320;2023-04-06T01:31:26;29.60;;;18.05;;
29452;SDS011;16424;50.956;5.320;2023-04-06T01:33:52;29.65;;;16.88;;
29452;SDS011;16424;50.956;5.320;2023-04-06T01:36:18;32.72;;;18.42;;
29452;SDS011;16424;50.956;5.320;2023-04-06T01:38:44;36.30;;;19.80;;
29452;SDS011;16424;50.956;5.320;2023-04-06T01:41:10;33.55;;;18.98;;
29452;SDS011;16424;50.956;5.320;2023-04-06T01:43:36;36.33;;;18.35;;
29452;SDS011;16424;50.956;5.320;2023-04-06T01:46:02;37.47;;;20.38;;
29452;SDS011;16424;50.956;5.320;2023-04-06T01:48:27;37.20;;;20.75;;
29452;SDS011;16424;50.956;5.320;2023-04-06T01:50:53;34.13;;;18.77;;
29452;SDS011;16424;50.956;5.320;2023-04-06T01:53:19;35.28;;;17.48;;
29452;SDS011;16424;50.956;5.320;2023-04-06T01:55:45;29.83;;;16.98;;
29452;SDS011;16424;50.956;5.320;2023-04-06T01:58:11;29.67;;;17.27;;
29452;SDS011;16424;50.956;5.320;2023-04-06T02:00:37;30.60;;;16.65;;
29452;SDS011;16424;50.956;5.320;2023-04-06T02:03:03;29.52;;;18.05;;
29452;SDS011;16424;50.956;5.320;2023-04-06T02:05:29;31.92;;;17.92;;
29452;SDS011;16424;50.956;5.320;2023-04-06T02:07:56;33.15;;;18.60;;
29452;SDS011;16424;50.956;5.320;2023-04-06T02:10:22;37.35;;;19.25;;
29452;SDS011;16424;50.956;5.320;2023-04-06T02:12:48;30.77;;;17.02;;
29452;SDS011;16424;50.956;5.320;2023-04-06T02:15:14;29.38;;;16.83;;
29452;SDS011;16424;50.956;5.320;2023-04-06T02:17:41;29.83;;;17.30;;
29452;SDS011;16424;50.956;5.320;2023-04-06T02:20:07;28.38;;;17.58;;
29452;SDS011;16424;50.956;5.320;2023-04-06T02:22:34;32.15;;;18.83;;
29452;SDS011;16424;50.956;5.320;2023-04-06T02:25:00;36.25;;;18.20;;
29452;SDS011;16424;50.956;5.320;2023-04-06T02:27:26;30.20;;;17.60;;
29452;SDS011;16424;50.956;5.320;2023-04-06T02:29:52;35.92;;;18.70;;
29452;SDS011;16424;50.956;5.320;2023-04-06T02:32:17;31.90;;;16.90;;
29452;SDS011;16424;50.956;5.320;2023-04-06T02:34:43;28.08;;;17.73;;
29452;SDS011;16424;50.956;5.320;2023-04-06T02:37:09;32.55;;;18.40;;
29452;SDS011;16424;50.956;5.320;2023-04-06T02:39:34;35.33;;;18.33;;
29452;SDS011;16424;50.956;5.320;2023-04-06T02:42:00;32.40;;;17.30;;
29452;SDS011;16424;50.956;5.320;2023-04-06T02:44:26;32.13;;;19.13;;
29452;SDS011;16424;50.956;5.320;2023-04-06T02:46:52;31.85;;;18.48;;
29452;SDS011;16424;50.956;5.320;2023-04-06T02:49:17;33.92;;;19.17;;
29452;SDS011;16424;50.956;5.320;2023-04-06T02:51:43;34.15;;;17.10;;
29452;SDS011;16424;50.956;5.320;2023-04-06T02:54:09;38.22;;;19.63;;
29452;SDS011;16424;50.956;5.320;2023-04-06T02:56:34;34.08;;;18.63;;
29452;SDS011;16424;50.956;5.320;2023-04-06T02:59:00;33.92;;;18.55;;
29452;SDS011;16424;50.956;5.320;2023-04-06T03:01:26;31.42;;;18.73;;
29452;SDS011;16424;50.956;5.320;2023-04-06T03:03:51;30.73;;;16.85;;
29452;SDS011;16424;50.956;5.320;2023-04-06T03:06:17;34.10;;;17.70;;
29452;SDS011;16424;50.956;5.320;2023-04-06T03:08:43;32.25;;;17.58;;
29452;SDS011;16424;50.956;5.320;2023-04-06T03:11:08;31.52;;;17.73;;
29452;SDS011;16424;50.956;5.320;2023-04-06T03:13:34;36.05;;;16.65;;
29452;SDS011;16424;50.956;5.320;2023-04-06T03:16:03;32.97;;;17.92;;
29452;SDS011;16424;50.956;5.320;2023-04-06T03:18:29;30.08;;;17.58;;
29452;SDS011;16424;50.956;5.320;2023-04-06T03:20:55;27.02;;;16.58;;
29452;SDS011;16424;50.956;5.320;2023-04-06T03:23:21;28.98;;;17.30;;
29452;SDS011;16424;50.956;5.320;2023-04-06T03:25:47;26.50;;;16.33;;
29452;SDS011;16424;50.956;5.320;2023-04-06T03:28:12;31.60;;;17.00;;
29452;SDS011;16424;50.956;5.320;2023-04-06T03:30:38;30.08;;;17.25;;
29452;SDS011;16424;50.956;5.320;2023-04-06T03:33:03;27.83;;;16.52;;
29452;SDS011;16424;50.956;5.320;2023-04-06T03:35:29;27.83;;;16.75;;
29452;SDS011;16424;50.956;5.320;2023-04-06T03:37:55;25.27;;;16.45;;
29452;SDS011;16424;50.956;5.320;2023-04-06T03:40:21;30.80;;;16.77;;
29452;SDS011;16424;50.956;5.320;2023-04-06T03:42:46;32.33;;;17.45;;
29452;SDS011;16424;50.956;5.320;2023-04-06T03:45:12;27.15;;;16.13;;
29452;SDS011;16424;50.956;5.320;2023-04-06T03:47:38;33.88;;;17.63;;
29452;SDS011;16424;50.956;5.320;2023-04-06T03:50:05;28.98;;;16.08;;
29452;SDS011;16424;50.956;5.320;2023-04-06T03:52:31;30.40;;;16.55;;
29452;SDS011;16424;50.956;5.320;2023-04-06T03:54:56;29.17;;;15.57;;
29452;SDS011;16424;50.956;5.320;2023-04-06T03:57:22;26.70;;;16.00;;
29452;SDS011;16424;50.956;5.320;2023-04-06T03:59:48;25.77;;;15.90;;
29452;SDS011;16424;50.956;5.320;2023-04-06T04:02:13;28.75;;;16.38;;
29452;SDS011;16424;50.956;5.320;2023-04-06T04:04:39;31.30;;;16.33;;
29452;SDS011;16424;50.956;5.320;2023-04-06T04:07:05;30.63;;;16.23;;
29452;SDS011;16424;50.956;5.320;2023-04-06T04:09:31;25.73;;;15.45;;
29452;SDS011;16424;50.956;5.320;2023-04-06T04:11:56;30.75;;;17.10;;
29452;SDS011;16424;50.956;5.320;2023-04-06T04:14:22;34.55;;;16.77;;
29452;SDS011;16424;50.956;5.320;2023-04-06T04:16:48;31.75;;;17.67;;
29452;SDS011;16424;50.956;5.320;2023-04-06T04:19:13;26.23;;;15.95;;
29452;SDS011;16424;50.956;5.320;2023-04-06T04:21:42;55.33;;;23.08;;
29452;SDS011;16424;50.956;5.320;2023-04-06T04:24:09;34.42;;;18.35;;
29452;SDS011;16424;50.956;5.320;2023-04-06T04:26:35;28.75;;;15.73;;
29452;SDS011;16424;50.956;5.320;2023-04-06T04:29:02;29.77;;;16.40;;
29452;SDS011;16424;50.956;5.320;2023-04-06T04:31:28;32.17;;;17.77;;
29452;SDS011;16424;50.956;5.320;2023-04-06T04:33:53;31.25;;;17.48;;
29452;SDS011;16424;50.956;5.320;2023-04-06T04:36:19;33.63;;;17.33;;
29452;SDS011;16424;50.956;5.320;2023-04-06T04:38:45;32.78;;;16.65;;
29452;SDS011;16424;50.956;5.320;2023-04-06T04:41:10;32.78;;;17.15;;
29452;SDS011;16424;50.956;5.320;2023-04-06T04:43:36;39.42;;;17.52;;
29452;SDS011;16424;50.956;5.320;2023-04-06T04:46:02;33.28;;;18.17;;
29452;SDS011;16424;50.956;5.320;2023-04-06T04:48:29;34.08;;;17.58;;
29452;SDS011;16424;50.956;5.320;2023-04-06T04:50:54;39.40;;;18.42;;
29452;SDS011;16424;50.956;5.320;2023-04-06T04:53:20;31.17;;;16.40;;
29452;SDS011;16424;50.956;5.320;2023-04-06T04:55:46;30.60;;;15.73;;
29452;SDS011;16424;50.956;5.320;2023-04-06T04:58:11;26.65;;;14.98;;
29452;SDS011;16424;50.956;5.320;2023-04-06T05:00:41;32.45;;;16.83;;
29452;SDS011;16424;50.956;5.320;2023-04-06T05:03:11;33.28;;;15.55;;
29452;SDS011;16424;50.956;5.320;2023-04-06T05:08:10;28.75;;;15.45;;
29452;SDS011;16424;50.956;5.320;2023-04-06T05:10:36;29.02;;;15.55;;
29452;SDS011;16424;50.956;5.320;2023-04-06T05:13:02;29.77;;;15.32;;
29452;SDS011;16424;50.956;5.320;2023-04-06T05:15:28;23.45;;;14.88;;
29452;SDS011;16424;50.956;5.320;2023-04-06T05:17:53;24.13;;;14.23;;
29452;SDS011;16424;50.956;5.320;2023-04-06T05:20:19;24.48;;;15.20;;
29452;SDS011;16424;50.956;5.320;2023-04-06T05:22:45;27.05;;;14.55;;
29452;SDS011;16424;50.956;5.320;2023-04-06T05:25:11;27.17;;;15.30;;
29452;SDS011;16424;50.956;5.320;2023-04-06T05:27:36;27.30;;;15.23;;
29452;SDS011;16424;50.956;5.320;2023-04-06T05:30:02;29.00;;;14.35;;
29452;SDS011;16424;50.956;5.320;2023-04-06T05:32:28;28.35;;;14.15;;
29452;SDS011;16424;50.956;5.320;2023-04-06T05:34:54;24.23;;;14.80;;
29452;SDS011;16424;50.956;5.320;2023-04-06T05:37:21;30.23;;;15.10;;
29452;SDS011;16424;50.956;5.320;2023-04-06T05:39:46;28.88;;;15.88;;
29452;SDS011;16424;50.956;5.320;2023-04-06T05:42:12;28.85;;;15.77;;
29452;SDS011;16424;50.956;5.320;2023-04-06T05:44:37;29.80;;;15.02;;
29452;SDS011;16424;50.956;5.320;2023-04-06T05:47:03;25.02;;;14.93;;
29452;SDS011;16424;50.956;5.320;2023-04-06T05:49:29;33.03;;;16.38;;
29452;SDS011;16424;50.956;5.320;2023-04-06T05:51:55;33.90;;;16.20;;
29452;SDS011;16424;50.956;5.320;2023-04-06T05:54:20;29.60;;;15.38;;
29452;SDS011;16424;50.956;5.320;2023-04-06T05:56:46;24.58;;;14.65;;
29452;SDS011;16424;50.956;5.320;2023-04-06T05:59:12;32.30;;;16.70;;
29452;SDS011;16424;50.956;5.320;2023-04-06T06:01:37;33.92;;;16.45;;
29452;SDS011;16424;50.956;5.320;2023-04-06T06:04:03;32.33;;;16.58;;
29452;SDS011;16424;50.956;5.320;2023-04-06T06:06:29;29.80;;;14.95;;
29452;SDS011;16424;50.956;5.320;2023-04-06T06:08:57;27.17;;;14.95;;
29452;SDS011;16424;50.956;5.320;2023-04-06T06:11:27;30.30;;;16.10;;
29452;SDS011;16424;50.956;5.320;2023-04-06T06:13:54;49.67;;;22.95;;
29452;SDS011;16424;50.956;5.320;2023-04-06T06:16:20;45.13;;;21.15;;
29452;SDS011;16424;50.956;5.320;2023-04-06T06:18:47;36.38;;;19.85;;
29452;SDS011;16424;50.956;5.320;2023-04-06T06:21:12;47.30;;;24.00;;
29452;SDS011;16424;50.956;5.320;2023-04-06T06:23:38;65.78;;;31.08;;
29452;SDS011;16424;50.956;5.320;2023-04-06T06:26:04;64.93;;;28.70;;
29452;SDS011;16424;50.956;5.320;2023-04-06T06:28:30;47.58;;;23.65;;
29452;SDS011;16424;50.956;5.320;2023-04-06T06:30:56;54.72;;;24.02;;
29452;SDS011;16424;50.956;5.320;2023-04-06T06:33:21;61.95;;;29.08;;
29452;SDS011;16424;50.956;5.320;2023-04-06T06:35:47;51.42;;;25.00;;
29452;SDS011;16424;50.956;5.320;2023-04-06T06:38:13;68.82;;;29.48;;
29452;SDS011;16424;50.956;5.320;2023-04-06T06:40:39;83.75;;;36.58;;
29452;SDS011;16424;50.956;5.320;2023-04-06T06:43:06;71.78;;;30.83;;
29452;SDS011;16424;50.956;5.320;2023-04-06T06:45:31;54.28;;;24.58;;
29452;SDS011;16424;50.956;5.320;2023-04-06T06:47:57;52.50;;;23.02;;
29452;SDS011;16424;50.956;5.320;2023-04-06T06:50:23;54.35;;;22.40;;
29452;SDS011;16424;50.956;5.320;2023-04-06T06:52:49;63.95;;;26.50;;
29452;SDS011;16424;50.956;5.320;2023-04-06T06:55:15;61.03;;;24.80;;
29452;SDS011;16424;50.956;5.320;2023-04-06T06:57:41;52.38;;;20.40;;
29452;SDS011;16424;50.956;5.320;2023-04-06T07:00:08;27.83;;;14.82;;
29452;SDS011;16424;50.956;5.320;2023-04-06T07:02:36;25.83;;;13.90;;
29452;SDS011;16424;50.956;5.320;2023-04-06T07:05:02;28.13;;;12.95;;
29452;SDS011;16424;50.956;5.320;2023-04-06T07:07:28;25.55;;;13.23;;
29452;SDS011;16424;50.956;5.320;2023-04-06T07:09:53;22.38;;;11.82;;
29452;SDS011;16424;50.956;5.320;2023-04-06T07:12:19;18.70;;;10.55;;
29452;SDS011;16424;50.956;5.320;2023-04-06T07:14:45;21.45;;;11.30;;
29452;SDS011;16424;50.956;5.320;2023-04-06T07:17:10;20.35;;;11.25;;
29452;SDS011;16424;50.956;5.320;2023-04-06T07:19:36;21.77;;;10.70;;
29452;SDS011;16424;50.956;5.320;2023-04-06T07:22:02;19.60;;;10.88;;
29452;SDS011;16424;50.956;5.320;2023-04-06T07:24:28;19.77;;;10.60;;
29452;SDS011;16424;50.956;5.320;2023-04-06T07:26:54;22.88;;;11.57;;
29452;SDS011;16424;50.956;5.320;2023-04-06T07:29:21;19.52;;;10.18;;
29452;SDS011;16424;50.956;5.320;2023-04-06T07:31:48;16.20;;;10.38;;
29452;SDS011;16424;50.956;5.320;2023-04-06T07:34:14;17.70;;;10.38;;
29452;SDS011;16424;50.956;5.320;2023-04-06T07:36:40;22.35;;;11.13;;
29452;SDS011;16424;50.956;5.320;2023-04-06T07:39:07;21.88;;;11.32;;
29452;SDS011;16424;50.956;5.320;2023-04-06T07:41:32;18.08;;;10.63;;
29452;SDS011;16424;50.956;5.320;2023-04-06T07:43:58;21.08;;;10.43;;
29452;SDS011;16424;50.956;5.320;2023-04-06T07:46:24;18.13;;;10.23;;
29452;SDS011;16424;50.956;5.320;2023-04-06T07:48:50;20.92;;;9.98;;
29452;SDS011;16424;50.956;5.320;2023-04-06T07:51:16;22.25;;;10.98;;
29452;SDS011;16424;50.956;5.320;2023-04-06T07:53:43;20.83;;;9.82;;
29452;SDS011;16424;50.956;5.320;2023-04-06T07:56:09;21.80;;;10.70;;
29452;SDS011;16424;50.956;5.320;2023-04-06T07:58:35;17.90;;;10.07;;
29452;SDS011;16424;50.956;5.320;2023-04-06T08:01:01;21.02;;;10.90;;
29452;SDS011;16424;50.956;5.320;2023-04-06T08:03:27;16.50;;;10.27;;
29452;SDS011;16424;50.956;5.320;2023-04-06T08:05:53;19.92;;;9.82;;
29452;SDS011;16424;50.956;5.320;2023-04-06T08:08:18;21.23;;;10.25;;
29452;SDS011;16424;50.956;5.320;2023-04-06T08:10:46;18.55;;;10.30;;
29452;SDS011;16424;50.956;5.320;2023-04-06T08:13:14;19.92;;;9.77;;
29452;SDS011;16424;50.956;5.320;2023-04-06T08:15:41;24.52;;;10.25;;
29452;SDS011;16424;50.956;5.320;2023-04-06T08:18:07;23.02;;;10.82;;
29452;SDS011;16424;50.956;5.320;2023-04-06T08:20:33;20.83;;;11.13;;
29452;SDS011;16424;50.956;5.320;2023-04-06T08:22:59;18.55;;;11.18;;
29452;SDS011;16424;50.956;5.320;2023-04-06T08:25:25;21.45;;;11.23;;
29452;SDS011;16424;50.956;5.320;2023-04-06T08:27:51;21.30;;;10.90;;
29452;SDS011;16424;50.956;5.320;2023-04-06T08:30:17;18.63;;;10.68;;
29452;SDS011;16424;50.956;5.320;2023-04-06T08:32:44;18.05;;;10.43;;
29452;SDS011;16424;50.956;5.320;2023-04-06T08:35:10;19.27;;;10.25;;
29452;SDS011;16424;50.956;5.320;2023-04-06T08:37:36;24.35;;;9.98;;
29452;SDS011;16424;50.956;5.320;2023-04-06T08:40:01;17.63;;;10.00;;
29452;SDS011;16424;50.956;5.320;2023-04-06T08:42:28;18.98;;;10.45;;
29452;SDS011;16424;50.956;5.320;2023-04-06T08:44:57;18.70;;;10.27;;
29452;SDS011;16424;50.956;5.320;2023-04-06T08:47:24;19.10;;;10.27;;
29452;SDS011;16424;50.956;5.320;2023-04-06T08:49:49;19.67;;;9.77;;
29452;SDS011;16424;50.956;5.320;2023-04-06T08:52:17;20.92;;;9.88;;
29452;SDS011;16424;50.956;5.320;2023-04-06T08:54:44;17.13;;;10.10;;
29452;SDS011;16424;50.956;5.320;2023-04-06T08:57:10;21.13;;;9.55;;
29452;SDS011;16424;50.956;5.320;2023-04-06T08:59:36;15.63;;;9.88;;
29452;SDS011;16424;50.956;5.320;2023-04-06T09:02:03;20.45;;;8.82;;
29452;SDS011;16424;50.956;5.320;2023-04-06T09:04:35;18.38;;;9.13;;
29452;SDS011;16424;50.956;5.320;2023-04-06T09:07:01;19.27;;;9.57;;
29452;SDS011;16424;50.956;5.320;2023-04-06T09:09:27;14.68;;;9.18;;
29452;SDS011;16424;50.956;5.320;2023-04-06T09:11:53;16.88;;;8.25;;
29452;SDS011;16424;50.956;5.320;2023-04-06T09:14:34;16.45;;;8.45;;
29452;SDS011;16424;50.956;5.320;2023-04-06T09:17:02;15.88;;;8.60;;
29452;SDS011;16424;50.956;5.320;2023-04-06T09:19:27;15.68;;;8.63;;
29452;SDS011;16424;50.956;5.320;2023-04-06T09:22:06;16.15;;;8.77;;
29452;SDS011;16424;50.956;5.320;2023-04-06T09:24:44;12.10;;;7.15;;
29452;SDS011;16424;50.956;5.320;2023-04-06T09:27:17;16.85;;;9.10;;
29452;SDS011;16424;50.956;5.320;2023-04-06T09:30:02;14.43;;;7.70;;
29452;SDS011;16424;50.956;5.320;2023-04-06T09:32:32;13.55;;;6.90;;
29452;SDS011;16424;50.956;5.320;2023-04-06T09:35:08;14.95;;;7.45;;
29452;SDS011;16424;50.956;5.320;2023-04-06T09:37:34;11.15;;;6.53;;
29452;SDS011;16424;50.956;5.320;2023-04-06T09:40:04;11.30;;;6.35;;
29452;SDS011;16424;50.956;5.320;2023-04-06T09:42:30;10.93;;;6.57;;
29452;SDS011;16424;50.956;5.320;2023-04-06T09:44:57;13.15;;;6.28;;
29452;SDS011;16424;50.956;5.320;2023-04-06T09:47:22;12.50;;;7.50;;
29452;SDS011;16424;50.956;5.320;2023-04-06T09:49:50;9.88;;;6.35;;
29452;SDS011;16424;50.956;5.320;2023-04-06T09:52:26;11.45;;;6.47;;
29452;SDS011;16424;50.956;5.320;2023-04-06T09:54:59;12.23;;;6.70;;
29452;SDS011;16424;50.956;5.320;2023-04-06T10:00:14;11.65;;;6.68;;
29452;SDS011;16424;50.956;5.320;2023-04-06T10:03:04;11.30;;;6.97;;
29452;SDS011;16424;50.956;5.320;2023-04-06T10:08:27;13.82;;;7.28;;
29452;SDS011;16424;50.956;5.320;2023-04-06T10:10:56;12.50;;;7.10;;
29452;SDS011;16424;50.956;5.320;2023-04-06T10:13:23;10.05;;;7.20;;
29452;SDS011;16424;50.956;5.320;2023-04-06T10:15:49;10.93;;;6.68;;
29452;SDS011;16424;50.956;5.320;2023-04-06T10:18:16;16.52;;;8.30;;
29452;SDS011;16424;50.956;5.320;2023-04-06T10:23:09;12.85;;;7.07;;
29452;SDS011;16424;50.956;5.320;2023-04-06T10:25:51;13.25;;;7.40;;
29452;SDS011;16424;50.956;5.320;2023-04-06T10:28:21;15.48;;;8.48;;
29452;SDS011;16424;50.956;5.320;2023-04-06T10:30:47;16.55;;;8.05;;
29452;SDS011;16424;50.956;5.320;2023-04-06T10:33:17;15.48;;;8.07;;
29452;SDS011;16424;50.956;5.320;2023-04-06T10:35:44;15.07;;;7.90;;
29452;SDS011;16424;50.956;5.320;2023-04-06T10:38:10;16.48;;;8.05;;
29452;SDS011;16424;50.956;5.320;2023-04-06T10:40:40;12.27;;;7.57;;
29452;SDS011;16424;50.956;5.320;2023-04-06T10:45:36;13.90;;;8.18;;
29452;SDS011;16424;50.956;5.320;2023-04-06T10:48:18;12.90;;;7.90;;
29452;SDS011;16424;50.956;5.320;2023-04-06T10:50:44;10.30;;;7.47;;
29452;SDS011;16424;50.956;5.320;2023-04-06T10:53:20;15.15;;;7.90;;
29452;SDS011;16424;50.956;5.320;2023-04-06T10:55:50;12.45;;;6.75;;
29452;SDS011;16424;50.956;5.320;2023-04-06T10:58:17;12.73;;;7.10;;
29452;SDS011;16424;50.956;5.320;2023-04-06T11:00:47;12.55;;;7.20;;
29452;SDS011;16424;50.956;5.320;2023-04-06T11:03:14;11.18;;;6.85;;
29452;SDS011;16424;50.956;5.320;2023-04-06T11:05:47;11.75;;;6.45;;
29452;SDS011;16424;50.956;5.320;2023-04-06T11:10:52;8.40;;;6.15;;
29452;SDS011;16424;50.956;5.320;2023-04-06T11:13:41;9.70;;;6.50;;
29452;SDS011;16424;50.956;5.320;2023-04-06T11:16:20;8.57;;;6.18;;
29452;SDS011;16424;50.956;5.320;2023-04-06T11:18:54;10.45;;;6.38;;
29452;SDS011;16424;50.956;5.320;2023-04-06T11:21:40;10.10;;;6.38;;
29452;SDS011;16424;50.956;5.320;2023-04-06T11:24:16;10.85;;;6.70;;
29452;SDS011;16424;50.956;5.320;2023-04-06T11:26:58;10.77;;;6.38;;
29452;SDS011;16424;50.956;5.320;2023-04-06T11:29:26;11.77;;;6.95;;
29452;SDS011;16424;50.956;5.320;2023-04-06T11:31:53;8.63;;;5.88;;
29452;SDS011;16424;50.956;5.320;2023-04-06T11:34:24;9.02;;;5.93;;
29452;SDS011;16424;50.956;5.320;2023-04-06T11:37:00;11.57;;;6.70;;
29452;SDS011;16424;50.956;5.320;2023-04-06T11:39:28;11.27;;;6.32;;
29452;SDS011;16424;50.956;5.320;2023-04-06T11:41:56;12.88;;;6.30;;
29452;SDS011;16424;50.956;5.320;2023-04-06T11:44:57;10.93;;;6.05;;
29452;SDS011;16424;50.956;5.320;2023-04-06T11:47:17;12.65;;;6.70;;
29452;SDS011;16424;50.956;5.320;2023-04-06T11:49:43;8.50;;;5.80;;
29452;SDS011;16424;50.956;5.320;2023-04-06T11:52:17;10.75;;;6.80;;
29452;SDS011;16424;50.956;5.320;2023-04-06T11:54:48;10.57;;;5.68;;
29452;SDS011;16424;50.956;5.320;2023-04-06T11:57:14;9.55;;;6.65;;
29452;SDS011;16424;50.956;5.320;2023-04-06T11:59:42;15.10;;;6.35;;
29452;SDS011;16424;50.956;5.320;2023-04-06T12:02:08;10.70;;;6.97;;
29452;SDS011;16424;50.956;5.320;2023-04-06T12:04:34;12.40;;;7.43;;
29452;SDS011;16424;50.956;5.320;2023-04-06T12:07:00;13.18;;;6.82;;
29452;SDS011;16424;50.956;5.320;2023-04-06T12:09:26;8.77;;;6.25;;
29452;SDS011;16424;50.956;5.320;2023-04-06T12:11:52;8.45;;;5.68;;
29452;SDS011;16424;50.956;5.320;2023-04-06T12:14:17;10.20;;;6.05;;
29452;SDS011;16424;50.956;5.320;2023-04-06T12:16:43;9.75;;;6.40;;
29452;SDS011;16424;50.956;5.320;2023-04-06T12:19:09;8.23;;;5.22;;
29452;SDS011;16424;50.956;5.320;2023-04-06T12:21:35;11.13;;;5.80;;
29452;SDS011;16424;50.956;5.320;2023-04-06T12:24:04;8.52;;;5.88;;
29452;SDS011;16424;50.956;5.320;2023-04-06T12:26:30;10.30;;;6.28;;
29452;SDS011;16424;50.956;5.320;2023-04-06T12:28:56;10.75;;;6.13;;
29452;SDS011;16424;50.956;5.320;2023-04-06T12:31:27;8.35;;;5.43;;
29452;SDS011;16424;50.956;5.320;2023-04-06T12:33:53;11.55;;;6.32;;
29452;SDS011;16424;50.956;5.320;2023-04-06T12:36:19;9.65;;;6.38;;
29452;SDS011;16424;50.956;5.320;2023-04-06T12:38:49;9.82;;;6.55;;
29452;SDS011;16424;50.956;5.320;2023-04-06T12:41:16;11.40;;;7.28;;
29452;SDS011;16424;50.956;5.320;2023-04-06T12:43:43;9.43;;;6.60;;
29452;SDS011;16424;50.956;5.320;2023-04-06T12:46:09;10.25;;;6.22;;
29452;SDS011;16424;50.956;5.320;2023-04-06T12:48:35;9.25;;;6.60;;
29452;SDS011;16424;50.956;5.320;2023-04-06T12:51:02;10.57;;;6.57;;
29452;SDS011;16424;50.956;5.320;2023-04-06T12:53:31;8.20;;;5.90;;
29452;SDS011;16424;50.956;5.320;2023-04-06T12:56:01;9.55;;;6.80;;
29452;SDS011;16424;50.956;5.320;2023-04-06T12:58:27;8.90;;;6.55;;
29452;SDS011;16424;50.956;5.320;2023-04-06T13:00:54;14.95;;;6.75;;
29452;SDS011;16424;50.956;5.320;2023-04-06T13:03:21;9.27;;;6.40;;
29452;SDS011;16424;50.956;5.320;2023-04-06T13:05:47;12.13;;;7.18;;
29452;SDS011;16424;50.956;5.320;2023-04-06T13:08:15;12.38;;;7.95;;
29452;SDS011;16424;50.956;5.320;2023-04-06T13:10:48;12.45;;;7.30;;
29452;SDS011;16424;50.956;5.320;2023-04-06T13:13:17;11.32;;;7.53;;
29452;SDS011;16424;50.956;5.320;2023-04-06T13:15:47;11.52;;;6.55;;
29452;SDS011;16424;50.956;5.320;2023-04-06T13:18:13;9.68;;;7.05;;
29452;SDS011;16424;50.956;5.320;2023-04-06T13:20:39;9.05;;;6.45;;
29452;SDS011;16424;50.956;5.320;2023-04-06T13:23:05;9.18;;;6.38;;
29452;SDS011;16424;50.956;5.320;2023-04-06T13:25:30;9.80;;;6.70;;
29452;SDS011;16424;50.956;5.320;2023-04-06T13:27:57;13.10;;;7.05;;
29452;SDS011;16424;50.956;5.320;2023-04-06T13:30:23;8.43;;;6.25;;
29452;SDS011;16424;50.956;5.320;2023-04-06T13:32:49;11.40;;;6.15;;
29452;SDS011;16424;50.956;5.320;2023-04-06T13:35:15;13.55;;;8.10;;
29452;SDS011;16424;50.956;5.320;2023-04-06T13:37:42;8.40;;;6.63;;
29452;SDS011;16424;50.956;5.320;2023-04-06T13:40:08;12.60;;;7.28;;
29452;SDS011;16424;50.956;5.320;2023-04-06T13:42:34;9.13;;;6.85;;
29452;SDS011;16424;50.956;5.320;2023-04-06T13:45:05;10.65;;;6.97;;
29452;SDS011;16424;50.956;5.320;2023-04-06T13:47:31;9.73;;;6.50;;
29452;SDS011;16424;50.956;5.320;2023-04-06T13:49:57;12.35;;;6.55;;
29452;SDS011;16424;50.956;5.320;2023-04-06T13:52:23;13.02;;;7.53;;
29452;SDS011;16424;50.956;5.320;2023-04-06T13:54:49;10.38;;;6.75;;
29452;SDS011;16424;50.956;5.320;2023-04-06T13:57:15;10.43;;;6.65;;
29452;SDS011;16424;50.956;5.320;2023-04-06T13:59:41;10.07;;;6.90;;
29452;SDS011;16424;50.956;5.320;2023-04-06T14:02:07;12.98;;;7.10;;
29452;SDS011;16424;50.956;5.320;2023-04-06T14:04:34;10.57;;;7.18;;
29452;SDS011;16424;50.956;5.320;2023-04-06T14:07:00;10.27;;;7.45;;
29452;SDS011;16424;50.956;5.320;2023-04-06T14:09:27;10.35;;;7.00;;
29452;SDS011;16424;50.956;5.320;2023-04-06T14:11:53;9.15;;;6.57;;
29452;SDS011;16424;50.956;5.320;2023-04-06T14:14:19;11.02;;;6.65;;
29452;SDS011;16424;50.956;5.320;2023-04-06T14:16:45;9.50;;;6.68;;
29452;SDS011;16424;50.956;5.320;2023-04-06T14:19:15;9.52;;;6.78;;
29452;SDS011;16424;50.956;5.320;2023-04-06T14:21:45;11.55;;;6.68;;
29452;SDS011;16424;50.956;5.320;2023-04-06T14:24:11;9.88;;;6.53;;
29452;SDS011;16424;50.956;5.320;2023-04-06T14:26:38;11.85;;;6.60;;
29452;SDS011;16424;50.956;5.320;2023-04-06T14:29:06;9.05;;;6.53;;
29452;SDS011;16424;50.956;5.320;2023-04-06T14:31:32;10.75;;;7.10;;
29452;SDS011;16424;50.956;5.320;2023-04-06T14:33:58;11.63;;;7.32;;
29452;SDS011;16424;50.956;5.320;2023-04-06T14:36:27;9.98;;;7.00;;
29452;SDS011;16424;50.956;5.320;2023-04-06T14:38:54;11.32;;;6.95;;
29452;SDS011;16424;50.956;5.320;2023-04-06T14:41:23;10.98;;;7.75;;
29452;SDS011;16424;50.956;5.320;2023-04-06T14:43:50;12.02;;;7.68;;